Accueil
METAR-TAF:

METAR-TAF

Aéroports :

Belmar / Farmingdale, New Jersey, États-Unis

latitude: 40-11N, longitude: 074-08W, altitude: 48 m

Observation

Le bulletin a été fait il y a 28 minutes, à 18:56 UTC
Vent 18 kt de ouest avec des rafales jusqu'à 34 kt
Température 8°C
Humidité 42%
Pression 998 hPa
Visibilité: 16.1 km
Nuages fragmentés à une hauteur de 7000 ft

METAR: KBLM 101856Z AUTO 27018G34KT 10SM BKN070 08/M04 A2947 RMK AO2 PK WND 27038/1836 RAB41E54 SLP979 P0000 T00831039

Heure: 15:24 (19:24 UTC)


TAF: absent

Observations et prévisions météorologiques de plus de 4000 aéroports (messages METAR et TAF).

Les stations disponibles sont représentées par des disques jaunes et rouges sur la carte.

Passer la souris dessus pour voir le nom de la station.

Cliquer dessus pour voir les observations et prévisions météorologiques.

Pour changer de carte: cliquez sur les boutons verts avec une croix noire pour zoomer, sur le bouton vert avec un tiret pour effectuer un zoom arrière, ou sur les flèches vertes pour les cartes adjacentes.


METAR-TAF: